createdAt,value
2022-09-01T00:01:49.328Z,21.87
2022-09-01T00:04:20.507Z,21.70
2022-09-01T00:06:48.440Z,21.29
2022-09-01T00:09:17.839Z,21.65
2022-09-01T00:11:50.765Z,21.68
2022-09-01T00:14:30.145Z,21.66
2022-09-01T00:17:03.819Z,21.67
2022-09-01T00:19:30.905Z,21.76
2022-09-01T00:21:57.694Z,21.48
2022-09-01T00:24:26.344Z,20.84
2022-09-01T00:26:54.356Z,20.63
2022-09-01T00:29:22.126Z,20.42
2022-09-01T00:31:49.051Z,20.50
2022-09-01T00:34:16.824Z,20.75
2022-09-01T00:36:43.930Z,21.10
2022-09-01T00:39:10.802Z,21.05
2022-09-01T00:41:40.091Z,21.26
2022-09-01T00:44:12.030Z,21.49
2022-09-01T00:46:47.763Z,21.44
2022-09-01T00:49:22.430Z,21.38
2022-09-01T00:51:54.553Z,21.39
2022-09-01T00:54:27.712Z,21.24
2022-09-01T00:56:57.786Z,20.90
2022-09-01T00:59:26.521Z,20.69
2022-09-01T01:01:54.716Z,20.35
2022-09-01T01:04:21.850Z,20.56
2022-09-01T01:06:58.824Z,20.62
2022-09-01T01:09:27.204Z,20.11
2022-09-01T01:11:54.937Z,20.04
2022-09-01T01:14:21.991Z,20.20
2022-09-01T01:16:52.091Z,20.09
2022-09-01T01:19:46.299Z,20.40
2022-09-01T01:22:55.737Z,20.45
2022-09-01T01:25:22.536Z,20.72
2022-09-01T01:27:50.387Z,20.87
2022-09-01T01:30:19.293Z,20.87
2022-09-01T01:32:47.822Z,20.81
2022-09-01T01:35:16.993Z,20.51
2022-09-01T01:37:48.987Z,20.41
2022-09-01T01:40:19.133Z,20.34
2022-09-01T01:42:49.154Z,20.42
2022-09-01T01:45:19.541Z,20.13
2022-09-01T01:47:53.236Z,20.33
2022-09-01T01:50:22.284Z,20.55
2022-09-01T01:52:49.050Z,20.55
2022-09-01T01:55:24.012Z,20.61
2022-09-01T01:57:50.721Z,20.67
2022-09-01T02:00:30.053Z,20.61
2022-09-01T02:02:57.348Z,20.89
2022-09-01T02:05:27.934Z,20.72
2022-09-01T02:08:00.071Z,20.10
2022-09-01T02:10:31.046Z,20.08
2022-09-01T02:13:04.388Z,20.14
2022-09-01T02:15:35.176Z,20.22
2022-09-01T02:18:15.214Z,20.30
2022-09-01T02:20:42.827Z,19.98
2022-09-01T02:23:10.838Z,20.06
2022-09-01T02:25:58.944Z,20.17
2022-09-01T02:28:32.995Z,20.44
2022-09-01T02:30:59.904Z,20.48
2022-09-01T02:33:28.466Z,20.29
2022-09-01T02:35:59.083Z,20.18
2022-09-01T02:38:29.232Z,20.41
2022-09-01T02:40:58.520Z,20.10
2022-09-01T02:43:28.421Z,19.90
2022-09-01T02:45:59.659Z,19.78
2022-09-01T02:48:33.020Z,19.79
2022-09-01T02:51:14.205Z,19.96
2022-09-01T02:53:42.819Z,19.99
2022-09-01T02:56:15.431Z,19.97
2022-09-01T02:58:46.643Z,19.84
2022-09-01T03:01:26.424Z,19.42
2022-09-01T03:03:55.927Z,19.61
2022-09-01T03:06:24.424Z,19.80
2022-09-01T03:08:54.625Z,20.16
2022-09-01T03:11:23.841Z,20.49
2022-09-01T03:13:50.933Z,20.40
2022-09-01T03:16:17.614Z,19.88
2022-09-01T03:18:44.694Z,20.10
2022-09-01T03:21:16.135Z,20.00
2022-09-01T03:23:45.423Z,19.87
2022-09-01T03:26:12.663Z,20.23
2022-09-01T03:28:39.411Z,20.00
2022-09-01T03:31:07.425Z,19.64
2022-09-01T03:33:34.515Z,19.82
2022-09-01T03:36:01.607Z,20.19
2022-09-01T03:38:28.737Z,20.26
2022-09-01T03:41:02.254Z,20.36
2022-09-01T03:43:35.594Z,20.38
2022-09-01T03:46:03.605Z,20.30
2022-09-01T03:48:32.153Z,20.26
2022-09-01T03:51:03.292Z,20.29
2022-09-01T03:53:33.771Z,20.15
2022-09-01T03:56:01.606Z,20.02
2022-09-01T03:58:28.700Z,19.75
2022-09-01T04:00:58.496Z,19.73
2022-09-01T04:03:31.132Z,19.38
2022-09-01T04:06:00.706Z,19.36
2022-09-01T04:08:32.498Z,19.79
2022-09-01T04:11:10.509Z,19.22
2022-09-01T04:13:39.834Z,18.98
2022-09-01T04:16:30.678Z,18.88
2022-09-01T04:18:57.460Z,18.98
2022-09-01T04:21:24.080Z,19.09
2022-09-01T04:23:50.703Z,19.41
2022-09-01T04:26:20.514Z,19.66
2022-09-01T04:28:50.932Z,19.91
2022-09-01T04:31:20.468Z,19.66
2022-09-01T04:33:50.122Z,19.70
2022-09-01T04:36:34.074Z,19.70
2022-09-01T04:39:02.367Z,19.68
2022-09-01T04:41:32.097Z,19.52
2022-09-01T04:44:02.488Z,19.55
2022-09-01T04:46:31.526Z,19.46
2022-09-01T04:48:58.314Z,19.70
2022-09-01T04:51:28.047Z,19.95
2022-09-01T04:53:57.963Z,20.18
2022-09-01T04:56:26.915Z,20.18
2022-09-01T04:58:57.116Z,19.21
2022-09-01T05:01:26.557Z,19.56
2022-09-01T05:04:03.885Z,19.78
2022-09-01T05:06:33.997Z,19.70
2022-09-01T05:09:00.779Z,19.97
2022-09-01T05:11:27.878Z,20.28
2022-09-01T05:13:57.767Z,20.61
2022-09-01T05:16:25.927Z,20.78
2022-09-01T05:18:54.291Z,20.85
2022-09-01T05:21:24.820Z,20.62
2022-09-01T05:23:52.870Z,20.66
2022-09-01T05:26:23.911Z,20.51
2022-09-01T05:28:56.635Z,20.60
2022-09-01T05:31:25.878Z,20.63
2022-09-01T05:33:52.527Z,20.47
2022-09-01T05:36:21.860Z,20.79
2022-09-01T05:38:49.763Z,21.16
2022-09-01T05:41:18.115Z,21.23
2022-09-01T05:43:48.276Z,20.07
2022-09-01T05:46:20.702Z,20.50
2022-09-01T05:48:49.641Z,20.80
2022-09-01T05:51:44.492Z,20.93
2022-09-01T05:54:14.084Z,21.10
2022-09-01T05:56:44.008Z,20.96
2022-09-01T05:59:28.333Z,20.69
2022-09-01T06:01:56.139Z,21.00
2022-09-01T06:04:25.718Z,21.31
2022-09-01T06:07:05.931Z,21.54
2022-09-01T06:09:38.353Z,20.91
2022-09-01T06:12:06.898Z,21.16
2022-09-01T06:14:34.970Z,21.59
2022-09-01T06:17:03.321Z,21.37
2022-09-01T06:19:34.773Z,21.10
2022-09-01T06:22:04.149Z,20.92
2022-09-01T06:24:30.836Z,21.15
2022-09-01T06:26:57.913Z,21.16
2022-09-01T06:29:24.664Z,21.22
2022-09-01T06:31:52.910Z,21.58
2022-09-01T06:34:20.550Z,21.64
2022-09-01T06:36:50.406Z,21.15
2022-09-01T06:39:20.416Z,21.61
2022-09-01T06:41:53.219Z,21.53
2022-09-01T06:44:24.770Z,21.70
2022-09-01T06:46:52.538Z,21.78
2022-09-01T06:49:21.688Z,21.49
2022-09-01T06:51:51.868Z,21.84
2022-09-01T06:54:21.085Z,21.69
2022-09-01T06:56:51.890Z,21.83
2022-09-01T06:59:21.915Z,21.66
2022-09-01T07:01:49.876Z,21.09
2022-09-01T07:04:20.258Z,21.50
2022-09-01T07:09:46.908Z,21.53
2022-09-01T07:12:25.996Z,21.57
2022-09-01T07:17:42.386Z,22.23
2022-09-01T07:20:27.239Z,21.90
2022-09-01T07:23:05.544Z,22.25
2022-09-01T07:25:48.295Z,22.00
2022-09-01T07:28:41.396Z,21.67
2022-09-01T07:39:51.416Z,23.01
2022-09-01T07:45:28.361Z,23.04
2022-09-01T07:47:56.543Z,23.14
2022-09-01T07:51:34.361Z,23.37
2022-09-01T07:53:12.739Z,23.07
2022-09-01T07:55:42.238Z,22.94
2022-09-01T07:58:11.941Z,22.44
2022-09-01T08:00:40.655Z,22.82
2022-09-01T08:03:07.455Z,22.88
2022-09-01T08:05:34.259Z,22.73
2022-09-01T08:08:01.697Z,22.35
2022-09-01T08:10:28.951Z,23.20
2022-09-01T08:12:57.037Z,23.74
2022-09-01T08:15:42.399Z,23.46
2022-09-01T08:18:14.296Z,23.81
2022-09-01T08:20:47.454Z,23.78
2022-09-01T08:23:18.521Z,24.05
2022-09-01T08:25:47.319Z,24.00
2022-09-01T08:28:15.518Z,24.40
2022-09-01T08:30:49.062Z,23.92
2022-09-01T08:33:19.662Z,23.95
2022-09-01T08:35:48.883Z,23.21
2022-09-01T08:38:16.043Z,23.54
2022-09-01T08:40:51.476Z,23.84
2022-09-01T08:43:54.757Z,24.07
2022-09-01T08:46:37.934Z,24.22
2022-09-01T08:49:24.673Z,23.84
2022-09-01T08:52:19.779Z,23.78
2022-09-01T08:55:15.035Z,23.77
2022-09-01T08:57:47.894Z,24.48
2022-09-01T09:00:20.363Z,24.60
2022-09-01T09:03:41.157Z,24.60
2022-09-01T09:06:36.650Z,24.17
2022-09-01T09:09:06.474Z,24.58
2022-09-01T09:11:58.996Z,24.97
2022-09-01T09:15:04.388Z,25.24
2022-09-01T09:17:37.134Z,25.07
2022-09-01T09:20:06.225Z,25.05
2022-09-01T09:22:33.726Z,24.77
2022-09-01T09:25:19.521Z,25.11
2022-09-01T09:27:49.413Z,25.20
2022-09-01T09:30:26.493Z,24.49
2022-09-01T09:35:50.900Z,25.09
2022-09-01T09:38:29.610Z,24.97
2022-09-01T09:43:56.031Z,25.28
2022-09-01T09:46:46.043Z,25.21
2022-09-01T09:49:34.896Z,25.77
2022-09-01T09:52:10.516Z,26.08
2022-09-01T09:54:40.471Z,26.22
2022-09-01T09:57:13.390Z,25.55
2022-09-01T10:00:04.850Z,25.92
2022-09-01T10:02:36.321Z,26.02
2022-09-01T10:05:24.772Z,26.37
2022-09-01T10:07:52.218Z,26.32
2022-09-01T10:10:28.119Z,26.42
2022-09-01T10:12:56.737Z,26.40
2022-09-01T10:15:26.946Z,26.68
2022-09-01T10:18:19.552Z,25.99
2022-09-01T10:20:53.259Z,26.21
2022-09-01T10:23:20.062Z,26.84
2022-09-01T10:25:50.750Z,26.40
2022-09-01T10:28:24.446Z,26.76
2022-09-01T10:30:53.994Z,26.95
2022-09-01T10:33:22.941Z,26.29
2022-09-01T10:35:53.286Z,26.39
2022-09-01T10:38:25.514Z,26.60
2022-09-01T10:41:08.719Z,26.92
2022-09-01T10:43:38.444Z,26.58
2022-09-01T10:46:24.777Z,26.60
2022-09-01T10:48:55.954Z,26.48
2022-09-01T10:51:29.705Z,27.06
2022-09-01T10:54:04.052Z,26.71
2022-09-01T10:56:44.318Z,26.56
2022-09-01T10:59:35.739Z,26.82
2022-09-01T11:05:12.120Z,26.60
2022-09-01T11:10:44.769Z,27.45
2022-09-01T11:13:34.634Z,27.27
2022-09-01T11:19:21.746Z,27.60
2022-09-01T11:22:02.723Z,28.09
2022-09-01T11:24:38.510Z,26.45
2022-09-01T11:27:09.485Z,27.44
2022-09-01T11:29:55.964Z,27.47
2022-09-01T11:32:28.106Z,27.02
2022-09-01T11:34:57.319Z,27.41
2022-09-01T11:37:27.578Z,27.86
2022-09-01T11:40:05.035Z,27.39
2022-09-01T11:42:45.906Z,27.39
2022-09-01T11:45:32.036Z,28.02
2022-09-01T11:48:03.596Z,27.18
2022-09-01T11:50:34.153Z,27.67
2022-09-01T11:53:21.827Z,28.13
2022-09-01T11:55:51.837Z,27.84
2022-09-01T11:58:27.869Z,27.63
2022-09-01T12:01:12.413Z,28.07
2022-09-01T12:03:39.299Z,27.92
2022-09-01T12:06:09.515Z,28.14
2022-09-01T12:08:42.860Z,28.07
2022-09-01T12:11:20.663Z,27.69
2022-09-01T12:14:11.112Z,27.95
2022-09-01T12:16:42.696Z,27.48
2022-09-01T12:19:24.082Z,27.97
2022-09-01T12:22:13.800Z,28.45
2022-09-01T12:24:46.038Z,28.68
2022-09-01T12:27:13.317Z,28.87
2022-09-01T12:29:40.495Z,28.23
2022-09-01T12:32:08.464Z,28.38
2022-09-01T12:34:44.726Z,28.15
2022-09-01T12:37:24.830Z,28.63
2022-09-01T12:39:54.976Z,28.60
2022-09-01T12:42:21.531Z,28.09
2022-09-01T12:45:09.017Z,28.50
2022-09-01T12:47:48.008Z,28.17
2022-09-01T12:50:16.521Z,28.70
2022-09-01T12:52:52.469Z,28.52
2022-09-01T12:58:12.709Z,27.41
2022-09-01T13:01:07.070Z,28.33
2022-09-01T13:03:42.851Z,28.81
2022-09-01T13:06:10.150Z,28.36
2022-09-01T13:08:37.646Z,27.98
2022-09-01T13:11:04.508Z,28.61
2022-09-01T13:13:32.020Z,28.45
2022-09-01T13:16:02.602Z,28.72
2022-09-01T13:18:30.400Z,28.86
2022-09-01T13:20:57.857Z,29.07
2022-09-01T13:23:24.657Z,28.11
2022-09-01T13:25:51.681Z,28.33
2022-09-01T13:28:19.039Z,27.98
2022-09-01T13:31:28.441Z,27.99
2022-09-01T13:36:43.769Z,28.12
2022-09-01T13:39:12.646Z,28.44
2022-09-01T13:41:39.602Z,28.97
2022-09-01T13:44:06.337Z,29.18
2022-09-01T13:46:59.071Z,28.49
2022-09-01T13:52:09.782Z,28.76
2022-09-01T13:54:36.509Z,28.08
2022-09-01T13:57:03.238Z,28.56
2022-09-01T13:59:30.396Z,27.47
2022-09-01T14:01:57.136Z,28.07
2022-09-01T14:04:23.859Z,27.83
2022-09-01T14:06:50.567Z,27.88
2022-09-01T14:09:18.178Z,28.13
2022-09-01T14:11:45.296Z,28.23
2022-09-01T14:14:12.010Z,27.54
2022-09-01T14:16:38.707Z,27.43
2022-09-01T14:19:05.832Z,27.78
2022-09-01T14:21:32.481Z,27.77
2022-09-01T14:24:00.281Z,27.89
2022-09-01T14:26:28.116Z,28.10
2022-09-01T14:28:55.101Z,28.12
2022-09-01T14:31:22.662Z,28.24
2022-09-01T14:33:49.773Z,28.43
2022-09-01T14:36:20.291Z,28.16
2022-09-01T14:38:47.174Z,28.07
2022-09-01T14:41:15.303Z,28.17
2022-09-01T14:43:43.155Z,28.28
2022-09-01T14:46:11.610Z,28.35
2022-09-01T14:48:39.970Z,28.28
2022-09-01T14:51:08.475Z,27.81
2022-09-01T14:53:36.267Z,27.59
2022-09-01T14:56:03.502Z,27.85
2022-09-01T14:58:30.627Z,27.76
2022-09-01T15:01:11.984Z,28.06
2022-09-01T15:03:46.083Z,27.98
2022-09-01T15:06:14.657Z,27.40
2022-09-01T15:08:42.137Z,27.83
2022-09-01T15:11:15.856Z,27.98
2022-09-01T15:13:44.098Z,28.09
2022-09-01T15:16:20.453Z,28.18
2022-09-01T15:18:47.530Z,27.86
2022-09-01T15:21:30.798Z,28.00
2022-09-01T15:23:57.821Z,28.12
2022-09-01T15:26:24.549Z,27.54
2022-09-01T15:28:51.415Z,26.96
2022-09-01T15:31:19.585Z,27.00
2022-09-01T15:34:01.052Z,26.70
2022-09-01T15:36:29.058Z,26.61
2022-09-01T15:38:57.121Z,27.03
2022-09-01T15:41:33.155Z,27.33
2022-09-01T15:44:01.980Z,26.50
2022-09-01T15:46:32.724Z,26.73
2022-09-01T15:49:01.072Z,26.61
2022-09-01T15:51:31.054Z,26.60
2022-09-01T15:54:06.996Z,26.22
2022-09-01T15:56:33.872Z,26.44
2022-09-01T15:59:02.189Z,26.78
2022-09-01T16:01:32.942Z,26.82
2022-09-01T16:04:00.318Z,26.49
2022-09-01T16:06:27.056Z,26.45
2022-09-01T16:08:54.835Z,26.60
2022-09-01T16:11:27.585Z,26.48
2022-09-01T16:13:54.785Z,26.78
2022-09-01T16:16:31.850Z,26.54
2022-09-01T16:19:07.622Z,26.24
2022-09-01T16:22:01.777Z,26.13
2022-09-01T16:24:28.441Z,25.75
2022-09-01T16:26:57.053Z,26.06
2022-09-01T16:29:45.197Z,25.94
2022-09-01T16:32:13.227Z,26.17
2022-09-01T16:34:46.871Z,26.18
2022-09-01T16:37:39.724Z,26.17
2022-09-01T16:40:33.037Z,26.21
2022-09-01T16:43:05.529Z,25.99
2022-09-01T16:45:46.698Z,26.07
2022-09-01T16:48:32.391Z,26.12
2022-09-01T16:51:13.769Z,26.18
2022-09-01T16:54:10.410Z,26.05
2022-09-01T16:56:57.325Z,25.85
2022-09-01T17:00:05.099Z,25.94
2022-09-01T17:02:38.637Z,25.59
2022-09-01T17:05:22.090Z,25.57
2022-09-01T17:08:08.563Z,25.49
2022-09-01T17:10:45.822Z,25.83
2022-09-01T17:13:44.922Z,25.85
2022-09-01T17:16:22.231Z,26.04
2022-09-01T17:18:58.349Z,26.05
2022-09-01T17:21:45.126Z,25.94
2022-09-01T17:24:22.874Z,25.91
2022-09-01T17:26:51.174Z,26.08
2022-09-01T17:29:24.780Z,26.05
2022-09-01T17:32:05.796Z,25.35
2022-09-01T17:35:11.276Z,25.57
2022-09-01T17:38:03.887Z,25.61
2022-09-01T17:40:46.067Z,25.59
2022-09-01T17:43:20.856Z,25.74
2022-09-01T17:45:57.297Z,25.83
2022-09-01T17:48:47.930Z,25.72
2022-09-01T17:51:49.216Z,25.72
2022-09-01T17:54:34.909Z,25.69
2022-09-01T17:57:36.187Z,25.44
2022-09-01T18:00:18.006Z,25.33
2022-09-01T18:03:06.212Z,25.32
2022-09-01T18:05:53.761Z,25.40
2022-09-01T18:08:42.384Z,25.49
2022-09-01T18:11:14.664Z,25.51
2022-09-01T18:13:59.829Z,25.13
2022-09-01T18:16:30.884Z,24.86
2022-09-01T18:19:03.804Z,25.07
2022-09-01T18:21:36.306Z,24.99
2022-09-01T18:24:15.994Z,25.14
2022-09-01T18:26:47.050Z,25.08
2022-09-01T18:29:13.762Z,24.89
2022-09-01T18:32:21.148Z,24.79
2022-09-01T18:35:08.347Z,24.93
2022-09-01T18:37:58.070Z,24.52
2022-09-01T18:41:04.579Z,24.85
2022-09-01T18:43:45.064Z,25.04
2022-09-01T18:46:23.151Z,25.09
2022-09-01T18:49:12.868Z,25.09
2022-09-01T18:51:48.483Z,25.03
2022-09-01T18:54:24.566Z,25.00
2022-09-01T18:57:00.294Z,24.77
2022-09-01T18:59:37.217Z,24.75
2022-09-01T19:02:22.768Z,24.77
2022-09-01T19:04:58.801Z,24.87
2022-09-01T19:07:39.325Z,24.91
2022-09-01T19:10:24.354Z,24.81
2022-09-01T19:13:00.718Z,25.08
2022-09-01T19:15:40.898Z,24.83
2022-09-01T19:18:32.866Z,24.38
2022-09-01T19:21:31.145Z,24.38
2022-09-01T19:24:10.724Z,24.10
2022-09-01T19:26:42.832Z,24.30
2022-09-01T19:29:17.774Z,24.37
2022-09-01T19:31:50.750Z,24.40
2022-09-01T19:34:25.531Z,24.14
2022-09-01T19:36:55.631Z,24.17
2022-09-01T19:39:26.788Z,24.50
2022-09-01T19:42:14.826Z,24.67
2022-09-01T19:45:13.706Z,24.68
2022-09-01T19:48:01.670Z,24.90
2022-09-01T19:50:41.926Z,24.71
2022-09-01T19:53:25.678Z,24.82
2022-09-01T19:55:58.500Z,24.58
2022-09-01T19:58:42.051Z,24.59
2022-09-01T20:01:14.416Z,24.61
2022-09-01T20:03:46.770Z,24.66
2022-09-01T20:06:36.400Z,24.78
2022-09-01T20:09:25.390Z,24.61
2022-09-01T20:12:30.368Z,24.72
2022-09-01T20:15:24.275Z,24.81
2022-09-01T20:18:00.213Z,24.72
2022-09-01T20:20:38.003Z,24.74
2022-09-01T20:23:14.881Z,24.71
2022-09-01T20:25:53.793Z,24.66
2022-09-01T20:28:41.939Z,24.69
2022-09-01T20:31:17.227Z,24.62
2022-09-01T20:33:50.737Z,24.68
2022-09-01T20:36:24.433Z,24.53
2022-09-01T20:39:19.178Z,24.50
2022-09-01T20:42:10.018Z,24.22
2022-09-01T20:44:52.840Z,24.25
2022-09-01T20:47:21.258Z,24.47
2022-09-01T20:49:48.712Z,24.30
2022-09-01T20:52:30.615Z,24.35
2022-09-01T20:55:29.646Z,24.08
2022-09-01T20:58:05.013Z,24.12
2022-09-01T21:00:41.645Z,24.19
2022-09-01T21:03:45.461Z,24.27
2022-09-01T21:06:23.109Z,23.77
2022-09-01T21:09:28.573Z,23.26
2022-09-01T21:11:59.169Z,23.64
2022-09-01T21:14:35.359Z,23.87
2022-09-01T21:17:17.486Z,23.95
2022-09-01T21:20:03.141Z,23.96
2022-09-01T21:22:30.127Z,23.85
2022-09-01T21:24:57.026Z,24.03
2022-09-01T21:27:28.842Z,23.98
2022-09-01T21:30:04.993Z,23.89
2022-09-01T21:32:33.783Z,23.92
2022-09-01T21:35:01.365Z,23.59
2022-09-01T21:37:29.134Z,23.75
2022-09-01T21:39:57.111Z,23.81
2022-09-01T21:42:40.217Z,23.81
2022-09-01T21:45:09.653Z,23.97
2022-09-01T21:47:36.728Z,23.94
2022-09-01T21:50:04.167Z,23.93
2022-09-01T21:52:30.805Z,24.04
2022-09-01T21:54:57.435Z,24.00
2022-09-01T21:57:24.215Z,23.87
2022-09-01T21:59:51.537Z,23.79
2022-09-01T22:02:20.168Z,23.89
2022-09-01T22:04:47.353Z,23.80
2022-09-01T22:07:15.341Z,23.67
2022-09-01T22:09:43.542Z,23.47
2022-09-01T22:12:10.854Z,23.43
2022-09-01T22:14:37.610Z,23.30
2022-09-01T22:17:04.649Z,23.13
2022-09-01T22:19:35.791Z,23.05
2022-09-01T22:22:03.256Z,23.19
2022-09-01T22:24:30.253Z,22.96
2022-09-01T22:26:57.091Z,23.34
2022-09-01T22:29:23.765Z,23.68
2022-09-01T22:31:50.480Z,23.75
2022-09-01T22:34:17.130Z,23.65
2022-09-01T22:36:46.958Z,23.56
2022-09-01T22:39:15.914Z,23.68
2022-09-01T22:41:42.760Z,23.73
2022-09-01T22:44:10.691Z,23.89
2022-09-01T22:46:40.635Z,23.86
2022-09-01T22:49:09.085Z,23.79
2022-09-01T22:51:38.614Z,23.74
2022-09-01T22:54:08.110Z,23.64
2022-09-01T22:56:38.054Z,23.72
2022-09-01T22:59:09.652Z,23.70
2022-09-01T23:01:39.712Z,23.84
2022-09-01T23:04:08.152Z,23.86
2022-09-01T23:06:38.631Z,23.75
2022-09-01T23:09:08.552Z,23.78
2022-09-01T23:11:35.278Z,23.85
2022-09-01T23:14:03.890Z,23.65
2022-09-01T23:16:31.431Z,23.88
2022-09-01T23:18:58.261Z,24.03
2022-09-01T23:21:29.086Z,24.02
2022-09-01T23:23:58.562Z,23.54
2022-09-01T23:26:26.897Z,23.40
2022-09-01T23:28:54.066Z,23.37
2022-09-01T23:31:24.760Z,23.50
2022-09-01T23:33:52.081Z,23.55
2022-09-01T23:36:21.743Z,23.51
2022-09-01T23:38:48.978Z,23.62
2022-09-01T23:41:23.191Z,23.48
2022-09-01T23:43:51.410Z,23.23
2022-09-01T23:46:29.640Z,23.19
2022-09-01T23:48:56.334Z,23.19
2022-09-01T23:51:24.673Z,23.14
2022-09-01T23:53:51.995Z,23.27
2022-09-01T23:56:21.965Z,23.46
2022-09-01T23:58:49.091Z,23.25
